createdAt,value
2023-02-22T00:02:14.368Z,100.00
2023-02-22T00:04:43.005Z,100.00
2023-02-22T00:07:12.121Z,100.00
2023-02-22T00:09:41.119Z,100.00
2023-02-22T00:12:10.616Z,100.00
2023-02-22T00:14:40.651Z,100.00
2023-02-22T00:17:09.814Z,100.00
2023-02-22T00:19:39.114Z,100.00
2023-02-22T00:22:07.702Z,100.00
2023-02-22T00:24:37.131Z,100.00
2023-02-22T00:27:06.002Z,100.00
2023-02-22T00:29:36.514Z,100.00
2023-02-22T00:32:05.637Z,100.00
2023-02-22T00:34:34.298Z,100.00
2023-02-22T00:37:04.615Z,100.00
2023-02-22T00:39:33.426Z,100.00
2023-02-22T00:42:04.420Z,100.00
2023-02-22T00:44:33.757Z,100.00
2023-02-22T00:47:05.156Z,100.00
2023-02-22T00:49:34.303Z,100.00
2023-02-22T00:52:02.977Z,100.00
2023-02-22T00:54:32.578Z,100.00
2023-02-22T00:57:01.715Z,100.00
2023-02-22T00:59:31.598Z,100.00
2023-02-22T01:02:01.094Z,100.00
2023-02-22T01:04:30.214Z,100.00
2023-02-22T01:07:01.021Z,100.00
2023-02-22T01:09:29.717Z,100.00
2023-02-22T01:11:58.726Z,100.00
2023-02-22T01:14:29.049Z,100.00
2023-02-22T01:16:58.192Z,100.00
2023-02-22T01:19:26.734Z,100.00
2023-02-22T01:21:55.412Z,100.00
2023-02-22T01:24:24.074Z,100.00
2023-02-22T01:26:53.923Z,100.00
2023-02-22T01:29:23.106Z,100.00
2023-02-22T01:31:55.040Z,100.00
2023-02-22T01:34:25.286Z,100.00
2023-02-22T01:36:54.172Z,100.00
2023-02-22T01:39:23.053Z,100.00
2023-02-22T01:41:56.264Z,100.00
2023-02-22T01:44:32.256Z,100.00
2023-02-22T01:47:05.018Z,100.00
2023-02-22T01:49:45.844Z,100.00
2023-02-22T01:52:19.970Z,100.00
2023-02-22T01:54:53.461Z,100.00
2023-02-22T01:57:26.215Z,100.00
2023-02-22T01:59:58.912Z,100.00
2023-02-22T02:02:28.320Z,100.00
2023-02-22T02:04:58.146Z,100.00
2023-02-22T02:07:30.212Z,100.00
2023-02-22T02:10:01.312Z,100.00
2023-02-22T02:12:33.449Z,100.00
2023-02-22T02:15:32.312Z,100.00
2023-02-22T02:18:03.764Z,100.00
2023-02-22T02:20:44.533Z,100.00
2023-02-22T02:23:38.714Z,100.00
2023-02-22T02:26:41.192Z,100.00
2023-02-22T02:29:19.177Z,100.00
2023-02-22T02:32:23.912Z,100.00
2023-02-22T02:35:07.571Z,100.00
2023-02-22T02:38:05.733Z,100.00
2023-02-22T02:40:55.811Z,100.00
2023-02-22T02:43:42.958Z,100.00
2023-02-22T02:46:27.232Z,100.00
2023-02-22T02:49:10.910Z,100.00
2023-02-22T02:51:42.661Z,100.00
2023-02-22T02:54:12.711Z,100.00
2023-02-22T02:56:43.176Z,100.00
2023-02-22T02:59:34.545Z,100.00
2023-02-22T03:02:40.715Z,100.00
2023-02-22T03:05:24.351Z,100.00
2023-02-22T03:08:17.185Z,100.00
2023-02-22T03:10:59.712Z,100.00
2023-02-22T03:13:53.215Z,100.00
2023-02-22T03:16:48.136Z,100.00
2023-02-22T03:19:22.793Z,100.00
2023-02-22T03:22:00.855Z,100.00
2023-02-22T03:24:29.913Z,100.00
2023-02-22T03:27:24.180Z,100.00
2023-02-22T03:29:57.995Z,100.00
2023-02-22T03:32:31.311Z,100.00
2023-02-22T03:35:08.782Z,100.00
2023-02-22T03:37:44.621Z,100.00
2023-02-22T03:40:19.699Z,100.00
2023-02-22T03:42:52.336Z,100.00
2023-02-22T03:45:24.321Z,100.00
2023-02-22T03:48:01.420Z,100.00
2023-02-22T03:50:38.053Z,100.00
2023-02-22T03:53:08.176Z,100.00
2023-02-22T03:55:38.300Z,100.00
2023-02-22T03:58:11.521Z,100.00
2023-02-22T04:00:45.021Z,100.00
2023-02-22T04:03:13.880Z,100.00
2023-02-22T04:05:42.656Z,100.00
2023-02-22T04:08:11.677Z,100.00
2023-02-22T04:10:40.454Z,100.00
2023-02-22T04:13:11.194Z,100.00
2023-02-22T04:15:43.495Z,100.00
2023-02-22T04:18:13.173Z,100.00
2023-02-22T04:20:42.038Z,100.00
2023-02-22T04:23:21.784Z,100.00
2023-02-22T04:25:50.855Z,100.00
2023-02-22T04:28:20.396Z,100.00
2023-02-22T04:30:54.653Z,100.00
2023-02-22T04:33:23.719Z,100.00
2023-02-22T04:35:52.302Z,100.00
2023-02-22T04:38:20.942Z,100.00
2023-02-22T04:40:49.886Z,100.00
2023-02-22T04:43:20.071Z,100.00
2023-02-22T04:45:50.108Z,100.00
2023-02-22T04:48:18.885Z,100.00
2023-02-22T04:50:48.301Z,100.00
2023-02-22T04:53:17.882Z,100.00
2023-02-22T04:55:47.519Z,100.00
2023-02-22T04:58:16.366Z,100.00
2023-02-22T05:00:45.071Z,100.00
2023-02-22T05:03:13.974Z,100.00
2023-02-22T05:05:43.186Z,100.00
2023-02-22T05:08:11.957Z,100.00
2023-02-22T05:10:42.394Z,100.00
2023-02-22T05:13:12.184Z,100.00
2023-02-22T05:15:41.239Z,100.00
2023-02-22T05:18:10.173Z,100.00
2023-02-22T05:20:38.974Z,100.00
2023-02-22T05:23:07.732Z,100.00
2023-02-22T05:25:36.588Z,100.00
2023-02-22T05:28:11.969Z,100.00
2023-02-22T05:30:41.352Z,100.00
2023-02-22T05:33:10.571Z,100.00
2023-02-22T05:35:39.278Z,100.00
2023-02-22T05:38:09.194Z,100.00
2023-02-22T05:40:37.986Z,100.00
2023-02-22T05:43:07.799Z,100.00
2023-02-22T05:45:36.873Z,100.00
2023-02-22T05:48:05.995Z,100.00
2023-02-22T05:50:35.076Z,100.00
2023-02-22T05:53:03.858Z,100.00
2023-02-22T05:55:33.342Z,100.00
2023-02-22T05:58:02.134Z,100.00
2023-02-22T06:00:31.545Z,100.00
2023-02-22T06:03:03.189Z,100.00
2023-02-22T06:05:31.972Z,100.00
2023-02-22T06:08:00.772Z,100.00
2023-02-22T06:10:30.423Z,100.00
2023-02-22T06:12:59.880Z,100.00
2023-02-22T06:15:29.296Z,100.00
2023-02-22T06:17:59.509Z,100.00
2023-02-22T06:20:31.390Z,100.00
2023-02-22T06:23:00.257Z,100.00
2023-02-22T06:25:33.251Z,100.00
2023-02-22T06:28:02.855Z,100.00
2023-02-22T06:30:34.316Z,100.00
2023-02-22T06:33:03.330Z,100.00
2023-02-22T06:35:32.577Z,100.00
2023-02-22T06:38:03.109Z,100.00
2023-02-22T06:40:31.835Z,100.00
2023-02-22T06:43:00.748Z,100.00
2023-02-22T06:45:29.939Z,100.00
2023-02-22T06:47:58.986Z,100.00
2023-02-22T06:50:29.768Z,100.00
2023-02-22T06:52:59.133Z,100.00
2023-02-22T06:55:33.340Z,100.00
2023-02-22T06:58:03.485Z,100.00
2023-02-22T07:00:33.188Z,100.00
2023-02-22T07:03:03.711Z,100.00
2023-02-22T07:05:33.507Z,100.00
2023-02-22T07:08:05.740Z,100.00
2023-02-22T07:10:36.443Z,100.00
2023-02-22T07:13:07.291Z,100.00
2023-02-22T07:15:36.455Z,100.00
2023-02-22T07:18:06.473Z,100.00
2023-02-22T07:20:35.530Z,100.00
2023-02-22T07:23:08.241Z,100.00
2023-02-22T07:25:38.254Z,100.00
2023-02-22T07:28:07.536Z,100.00
2023-02-22T07:30:36.484Z,100.00
2023-02-22T07:33:08.320Z,100.00
2023-02-22T07:35:39.582Z,100.00
2023-02-22T07:38:10.501Z,100.00
2023-02-22T07:40:39.819Z,100.00
2023-02-22T07:43:18.132Z,100.00
2023-02-22T07:45:48.842Z,100.00
2023-02-22T07:48:19.045Z,100.00
2023-02-22T07:50:48.137Z,100.00
2023-02-22T07:53:30.690Z,100.00
2023-02-22T07:56:01.054Z,100.00
2023-02-22T07:58:31.226Z,100.00
2023-02-22T08:01:03.521Z,100.00
2023-02-22T08:03:38.321Z,100.00
2023-02-22T08:06:08.426Z,100.00
2023-02-22T08:08:37.330Z,100.00
2023-02-22T08:11:06.616Z,100.00
2023-02-22T08:13:37.698Z,100.00
2023-02-22T08:16:06.345Z,100.00
2023-02-22T08:18:35.139Z,100.00
2023-02-22T08:21:04.956Z,99.97
2023-02-22T08:23:38.360Z,100.00
2023-02-22T08:26:09.736Z,99.43
2023-02-22T08:28:38.483Z,99.71
2023-02-22T08:31:09.513Z,98.90
2023-02-22T08:33:38.974Z,98.27
2023-02-22T08:36:10.905Z,97.61
2023-02-22T08:38:41.332Z,97.17
2023-02-22T08:41:10.050Z,97.09
2023-02-22T08:43:38.985Z,95.70
2023-02-22T08:46:08.840Z,95.92
2023-02-22T08:48:37.692Z,95.69
2023-02-22T08:51:07.073Z,95.71
2023-02-22T08:53:36.790Z,95.04
2023-02-22T08:56:06.282Z,94.67
2023-02-22T08:58:35.683Z,94.20
2023-02-22T09:01:04.480Z,93.92
2023-02-22T09:03:33.760Z,93.45
2023-02-22T09:06:05.085Z,92.84
2023-02-22T09:08:33.959Z,92.04
2023-02-22T09:11:02.556Z,91.66
2023-02-22T09:13:34.465Z,91.07
2023-02-22T09:16:03.493Z,91.15
2023-02-22T09:18:43.484Z,90.46
2023-02-22T09:21:16.185Z,88.99
2023-02-22T09:23:48.016Z,88.40
2023-02-22T09:26:16.857Z,87.88
2023-02-22T09:28:45.701Z,87.67
2023-02-22T09:31:15.011Z,87.79
2023-02-22T09:33:45.870Z,87.31
2023-02-22T09:36:16.536Z,86.76
2023-02-22T09:38:46.703Z,86.24
2023-02-22T09:41:35.175Z,86.49
2023-02-22T09:44:17.165Z,85.69
2023-02-22T09:46:46.676Z,84.90
2023-02-22T09:49:34.537Z,84.63
2023-02-22T09:52:21.120Z,83.50
2023-02-22T09:55:07.407Z,82.53
2023-02-22T09:57:40.920Z,81.88
2023-02-22T10:00:18.751Z,81.81
2023-02-22T10:03:21.316Z,81.96
2023-02-22T10:06:13.150Z,81.78
2023-02-22T10:08:42.614Z,81.73
2023-02-22T10:11:28.392Z,80.32
2023-02-22T10:14:44.294Z,79.78
2023-02-22T10:17:31.508Z,79.72
2023-02-22T10:20:07.256Z,79.21
2023-02-22T10:22:43.780Z,79.00
2023-02-22T10:25:19.626Z,78.46
2023-02-22T10:28:00.610Z,77.74
2023-02-22T10:30:42.307Z,77.46
2023-02-22T10:33:27.225Z,77.05
2023-02-22T10:35:56.529Z,76.49
2023-02-22T10:38:28.065Z,76.46
2023-02-22T10:40:58.183Z,76.63
2023-02-22T10:43:27.191Z,76.36
2023-02-22T10:45:58.862Z,76.10
2023-02-22T10:48:30.728Z,75.99
2023-02-22T10:51:03.060Z,75.76
2023-02-22T10:53:36.459Z,75.59
2023-02-22T10:56:14.263Z,75.08
2023-02-22T10:59:06.313Z,75.30
2023-02-22T11:01:41.108Z,75.09
2023-02-22T11:04:16.539Z,74.85
2023-02-22T11:06:48.916Z,74.89
2023-02-22T11:09:22.970Z,74.80
2023-02-22T11:12:10.244Z,75.03
2023-02-22T11:14:39.550Z,74.65
2023-02-22T11:17:09.618Z,74.53
2023-02-22T11:19:39.872Z,74.21
2023-02-22T11:22:10.244Z,73.91
2023-02-22T11:27:29.800Z,73.92
2023-02-22T11:30:22.218Z,73.90
2023-02-22T11:33:04.116Z,73.76
2023-02-22T11:35:37.494Z,73.74
2023-02-22T11:38:17.552Z,73.31
2023-02-22T11:40:46.523Z,73.17
2023-02-22T11:43:21.143Z,73.30
2023-02-22T11:46:12.486Z,72.76
2023-02-22T11:49:06.472Z,72.53
2023-02-22T11:51:38.509Z,72.44
2023-02-22T11:54:33.728Z,71.81
2023-02-22T11:57:36.878Z,71.87
2023-02-22T12:00:25.096Z,71.61
2023-02-22T12:03:07.375Z,71.12
2023-02-22T12:05:48.198Z,70.83
2023-02-22T12:08:35.845Z,71.27
2023-02-22T12:11:11.188Z,71.74
2023-02-22T12:13:46.776Z,71.79
2023-02-22T12:16:23.214Z,71.47
2023-02-22T12:19:10.720Z,71.95
2023-02-22T12:21:41.642Z,71.85
2023-02-22T12:24:16.846Z,71.49
2023-02-22T12:27:00.485Z,71.07
2023-02-22T12:29:37.914Z,71.20
2023-02-22T12:32:46.289Z,70.99
2023-02-22T12:35:25.767Z,71.23
2023-02-22T12:38:02.124Z,70.92
2023-02-22T12:40:54.945Z,71.11
2023-02-22T12:43:56.040Z,71.27
2023-02-22T12:46:43.280Z,71.22
2023-02-22T12:49:20.651Z,71.42
2023-02-22T12:52:20.846Z,70.81
2023-02-22T12:55:23.256Z,70.70
2023-02-22T12:57:57.672Z,70.78
2023-02-22T13:00:29.122Z,70.43
2023-02-22T13:03:34.269Z,70.66
2023-02-22T13:06:11.845Z,70.34
2023-02-22T13:08:55.991Z,70.60
2023-02-22T13:11:49.613Z,70.30
2023-02-22T13:14:47.055Z,70.46
2023-02-22T13:17:28.677Z,69.68
2023-02-22T13:20:11.663Z,69.62
2023-02-22T13:22:41.319Z,69.50
2023-02-22T13:25:18.191Z,69.98
2023-02-22T13:27:52.820Z,70.88
2023-02-22T13:30:29.508Z,71.03
2023-02-22T13:33:16.951Z,70.75
2023-02-22T13:36:19.399Z,70.62
2023-02-22T13:39:19.870Z,70.67
2023-02-22T13:41:56.455Z,70.25
2023-02-22T13:44:53.058Z,70.06
2023-02-22T13:47:41.503Z,69.56
2023-02-22T13:50:54.639Z,70.09
2023-02-22T13:53:29.687Z,70.62
2023-02-22T13:56:02.004Z,70.59
2023-02-22T13:58:31.049Z,70.67
2023-02-22T14:01:01.087Z,70.31
2023-02-22T14:03:41.532Z,70.84
2023-02-22T14:06:33.288Z,70.71
2023-02-22T14:09:21.381Z,70.40
2023-02-22T14:11:54.874Z,70.16
2023-02-22T14:14:25.147Z,70.11
2023-02-22T14:17:26.134Z,69.51
2023-02-22T14:20:04.648Z,69.57
2023-02-22T14:22:33.360Z,69.62
2023-02-22T14:25:02.080Z,69.60
2023-02-22T14:27:41.017Z,69.69
2023-02-22T14:30:26.413Z,70.01
2023-02-22T14:32:57.020Z,70.49
2023-02-22T14:35:33.334Z,70.06
2023-02-22T14:38:18.667Z,69.93
2023-02-22T14:40:49.153Z,70.03
2023-02-22T14:43:20.388Z,69.23
2023-02-22T14:46:02.439Z,69.60
2023-02-22T14:48:40.242Z,69.04
2023-02-22T14:51:35.689Z,68.71
2023-02-22T14:54:35.665Z,68.27
2023-02-22T14:57:15.256Z,68.18
2023-02-22T15:00:23.044Z,68.67
2023-02-22T15:02:57.608Z,68.77
2023-02-22T15:05:30.670Z,69.06
2023-02-22T15:08:02.593Z,68.70
2023-02-22T15:10:31.731Z,68.62
2023-02-22T15:13:09.985Z,68.69
2023-02-22T15:15:49.205Z,68.60
2023-02-22T15:18:22.462Z,68.75
2023-02-22T15:20:58.630Z,68.90
2023-02-22T15:23:30.986Z,68.86
2023-02-22T15:26:01.022Z,68.98
2023-02-22T15:28:31.343Z,69.23
2023-02-22T15:31:23.946Z,69.16
2023-02-22T15:33:54.002Z,69.25
2023-02-22T15:36:27.707Z,69.53
2023-02-22T15:38:56.609Z,69.23
2023-02-22T15:41:31.985Z,69.36
2023-02-22T15:44:22.659Z,68.96
2023-02-22T15:46:55.720Z,69.24
2023-02-22T15:49:26.553Z,69.43
2023-02-22T15:52:20.080Z,69.21
2023-02-22T15:54:51.476Z,69.83
2023-02-22T15:57:25.601Z,70.15
2023-02-22T15:59:57.275Z,70.80
2023-02-22T16:02:39.633Z,71.27
2023-02-22T16:05:15.566Z,71.93
2023-02-22T16:07:50.510Z,72.19
2023-02-22T16:10:22.190Z,72.12
2023-02-22T16:13:05.933Z,72.41
2023-02-22T16:15:39.886Z,72.90
2023-02-22T16:18:25.905Z,72.34
2023-02-22T16:21:16.818Z,72.00
2023-02-22T16:23:57.394Z,72.12
2023-02-22T16:26:33.317Z,72.16
2023-02-22T16:29:08.798Z,72.44
2023-02-22T16:31:39.508Z,73.08
2023-02-22T16:34:12.488Z,73.63
2023-02-22T16:36:47.372Z,73.55
2023-02-22T16:39:45.641Z,74.10
2023-02-22T16:42:20.464Z,74.39
2023-02-22T16:44:49.862Z,74.77
2023-02-22T16:47:20.064Z,74.97
2023-02-22T16:49:53.133Z,75.44
2023-02-22T16:52:22.768Z,75.77
2023-02-22T16:54:52.992Z,75.94
2023-02-22T16:57:24.737Z,75.93
2023-02-22T16:59:56.614Z,76.32
2023-02-22T17:02:28.800Z,76.49
2023-02-22T17:04:58.482Z,76.15
2023-02-22T17:07:32.110Z,76.25
2023-02-22T17:10:01.294Z,76.79
2023-02-22T17:12:34.001Z,76.84
2023-02-22T17:15:04.340Z,77.11
2023-02-22T17:17:33.585Z,77.02
2023-02-22T17:20:07.604Z,77.52
2023-02-22T17:22:36.648Z,77.63
2023-02-22T17:25:39.104Z,77.65
2023-02-22T17:28:10.886Z,77.41
2023-02-22T17:30:43.502Z,77.81
2023-02-22T17:33:17.265Z,77.79
2023-02-22T17:35:50.534Z,77.75
2023-02-22T17:38:23.601Z,78.17
2023-02-22T17:40:55.071Z,78.09
2023-02-22T17:43:25.969Z,78.01
2023-02-22T17:46:05.072Z,77.99
2023-02-22T17:48:35.930Z,78.33
2023-02-22T17:51:08.143Z,78.74
2023-02-22T17:53:46.228Z,79.08
2023-02-22T17:56:20.950Z,79.39
2023-02-22T17:58:54.049Z,79.60
2023-02-22T18:01:27.657Z,79.87
2023-02-22T18:04:00.802Z,79.89
2023-02-22T18:06:34.390Z,79.83
2023-02-22T18:09:12.714Z,80.09
2023-02-22T18:11:46.144Z,80.18
2023-02-22T18:14:17.035Z,79.98
2023-02-22T18:16:48.949Z,80.08
2023-02-22T18:19:23.216Z,80.22
2023-02-22T18:21:54.359Z,80.29
2023-02-22T18:24:35.301Z,80.62
2023-02-22T18:27:11.604Z,80.65
2023-02-22T18:29:43.200Z,80.49
2023-02-22T18:32:14.689Z,80.63
2023-02-22T18:34:46.690Z,80.51
2023-02-22T18:37:22.609Z,80.85
2023-02-22T18:39:56.825Z,80.93
2023-02-22T18:42:29.135Z,81.14
2023-02-22T18:45:04.225Z,81.11
2023-02-22T18:47:46.370Z,81.00
2023-02-22T18:50:21.080Z,80.95
2023-02-22T18:52:51.973Z,80.85
2023-02-22T18:55:31.295Z,80.60
2023-02-22T18:58:03.040Z,80.20
2023-02-22T19:00:36.536Z,79.88
2023-02-22T19:03:13.059Z,79.79
2023-02-22T19:05:46.454Z,79.54
2023-02-22T19:08:18.670Z,79.26
2023-02-22T19:10:52.665Z,78.93
2023-02-22T19:13:23.605Z,78.79
2023-02-22T19:15:53.753Z,78.74
2023-02-22T19:18:28.114Z,78.71
2023-02-22T19:21:05.074Z,78.81
2023-02-22T19:23:38.820Z,78.84
2023-02-22T19:26:11.642Z,79.16
2023-02-22T19:28:43.576Z,79.40
2023-02-22T19:31:23.747Z,79.75
2023-02-22T19:33:56.486Z,80.14
2023-02-22T19:36:28.788Z,80.44
2023-02-22T19:39:03.850Z,80.83
2023-02-22T19:41:35.608Z,81.19
2023-02-22T19:44:08.084Z,81.62
2023-02-22T19:47:01.961Z,81.75
2023-02-22T19:49:40.519Z,82.51
2023-02-22T19:52:11.710Z,82.59
2023-02-22T19:54:44.010Z,82.92
2023-02-22T19:57:15.428Z,83.34
2023-02-22T19:59:46.959Z,83.55
2023-02-22T20:02:19.715Z,83.55
2023-02-22T20:04:53.847Z,84.24
2023-02-22T20:07:27.449Z,84.29
2023-02-22T20:10:02.897Z,84.22
2023-02-22T20:12:34.647Z,84.32
2023-02-22T20:15:09.542Z,84.56
2023-02-22T20:17:42.244Z,84.62
2023-02-22T20:20:16.723Z,84.74
2023-02-22T20:22:48.082Z,84.48
2023-02-22T20:25:19.439Z,84.41
2023-02-22T20:27:50.617Z,84.65
2023-02-22T20:30:22.186Z,84.70
2023-02-22T20:32:55.206Z,85.02
2023-02-22T20:35:32.691Z,84.72
2023-02-22T20:38:04.853Z,84.58
2023-02-22T20:40:39.187Z,84.95
2023-02-22T20:43:15.805Z,85.18
2023-02-22T20:45:48.342Z,85.38
2023-02-22T20:48:22.426Z,84.95
2023-02-22T20:50:55.796Z,85.23
2023-02-22T20:53:27.034Z,85.02
2023-02-22T20:56:00.453Z,85.09
2023-02-22T20:58:38.273Z,85.07
2023-02-22T21:01:17.932Z,85.40
2023-02-22T21:03:51.230Z,85.36
2023-02-22T21:06:23.732Z,85.57
2023-02-22T21:08:59.347Z,85.57
2023-02-22T21:11:33.029Z,85.74
2023-02-22T21:14:08.452Z,85.68
2023-02-22T21:16:49.190Z,86.07
2023-02-22T21:19:28.457Z,86.19
2023-02-22T21:22:01.782Z,86.53
2023-02-22T21:24:33.555Z,86.17
2023-02-22T21:27:13.397Z,86.57
2023-02-22T21:29:45.188Z,86.30
2023-02-22T21:32:16.927Z,86.71
2023-02-22T21:34:50.560Z,86.48
2023-02-22T21:37:23.403Z,87.02
2023-02-22T21:39:53.494Z,87.00
2023-02-22T21:42:25.267Z,86.89
2023-02-22T21:44:57.772Z,87.13
2023-02-22T21:47:28.358Z,87.60
2023-02-22T21:49:58.654Z,87.36
2023-02-22T21:52:28.157Z,87.79
2023-02-22T21:54:57.526Z,87.96
2023-02-22T21:57:26.639Z,87.97
2023-02-22T21:59:55.747Z,87.83
2023-02-22T22:02:24.739Z,88.09
2023-02-22T22:04:53.645Z,87.99
2023-02-22T22:07:23.683Z,88.06
2023-02-22T22:09:57.038Z,88.33
2023-02-22T22:12:37.548Z,88.34
2023-02-22T22:15:09.996Z,88.47
2023-02-22T22:17:39.277Z,88.59
2023-02-22T22:20:12.898Z,88.62
2023-02-22T22:22:43.827Z,88.71
2023-02-22T22:25:13.916Z,88.89
2023-02-22T22:27:43.049Z,88.94
2023-02-22T22:30:13.244Z,89.29
2023-02-22T22:32:41.924Z,89.39
2023-02-22T22:35:15.324Z,89.56
2023-02-22T22:37:44.896Z,89.72
2023-02-22T22:40:16.274Z,90.34
2023-02-22T22:42:46.454Z,90.58
2023-02-22T22:45:18.629Z,90.73
2023-02-22T22:47:47.565Z,90.97
2023-02-22T22:50:19.232Z,90.74
2023-02-22T22:52:49.477Z,90.66
2023-02-22T22:55:19.566Z,90.77
2023-02-22T22:57:48.474Z,90.88
2023-02-22T23:00:30.154Z,90.79
2023-02-22T23:02:59.474Z,90.94
2023-02-22T23:05:29.585Z,91.23
2023-02-22T23:08:05.404Z,91.29
2023-02-22T23:10:39.640Z,91.36
2023-02-22T23:13:15.833Z,91.45
2023-02-22T23:15:47.977Z,91.65
2023-02-22T23:18:21.245Z,91.83
2023-02-22T23:20:59.423Z,91.89
2023-02-22T23:23:28.246Z,92.30
2023-02-22T23:26:27.513Z,92.54
2023-02-22T23:28:59.774Z,92.49
2023-02-22T23:31:32.425Z,92.50
2023-02-22T23:34:07.057Z,92.74
2023-02-22T23:36:40.391Z,92.89
2023-02-22T23:39:09.109Z,93.00
2023-02-22T23:41:38.187Z,92.90
2023-02-22T23:44:10.596Z,92.99
2023-02-22T23:46:41.465Z,93.33
2023-02-22T23:49:10.507Z,93.07
2023-02-22T23:51:40.626Z,93.38
2023-02-22T23:54:12.803Z,93.64
2023-02-22T23:57:03.211Z,93.77
2023-02-22T23:59:33.086Z,93.96
